sensor_id;sensor_type;location;lat;lon;timestamp;P1;durP1;ratioP1;P2;durP2;ratioP2
37297;SDS011;30517;51.932;4.278;2022-12-18T00:00:13;24.63;;;12.68;;
37297;SDS011;30517;51.932;4.278;2022-12-18T00:02:55;23.52;;;12.30;;
37297;SDS011;30517;51.932;4.278;2022-12-18T00:05:36;27.33;;;13.27;;
37297;SDS011;30517;51.932;4.278;2022-12-18T00:08:20;24.33;;;10.60;;
37297;SDS011;30517;51.932;4.278;2022-12-18T00:11:04;21.85;;;12.32;;
37297;SDS011;30517;51.932;4.278;2022-12-18T00:13:49;26.08;;;12.02;;
37297;SDS011;30517;51.932;4.278;2022-12-18T00:16:30;27.00;;;13.30;;
37297;SDS011;30517;51.932;4.278;2022-12-18T00:19:13;20.23;;;11.70;;
37297;SDS011;30517;51.932;4.278;2022-12-18T00:21:55;25.48;;;13.73;;
37297;SDS011;30517;51.932;4.278;2022-12-18T00:24:35;22.23;;;11.23;;
37297;SDS011;30517;51.932;4.278;2022-12-18T00:27:16;26.90;;;12.50;;
37297;SDS011;30517;51.932;4.278;2022-12-18T00:29:57;24.35;;;12.20;;
37297;SDS011;30517;51.932;4.278;2022-12-18T00:32:38;26.58;;;11.00;;
37297;SDS011;30517;51.932;4.278;2022-12-18T00:35:19;22.83;;;12.43;;
37297;SDS011;30517;51.932;4.278;2022-12-18T00:37:59;24.25;;;12.73;;
37297;SDS011;30517;51.932;4.278;2022-12-18T00:40:40;25.67;;;12.98;;
37297;SDS011;30517;51.932;4.278;2022-12-18T00:43:21;23.02;;;12.98;;
37297;SDS011;30517;51.932;4.278;2022-12-18T00:46:02;24.75;;;11.73;;
37297;SDS011;30517;51.932;4.278;2022-12-18T00:48:43;21.92;;;11.82;;
37297;SDS011;30517;51.932;4.278;2022-12-18T00:51:25;26.63;;;11.68;;
37297;SDS011;30517;51.932;4.278;2022-12-18T00:54:07;24.75;;;13.60;;
37297;SDS011;30517;51.932;4.278;2022-12-18T00:56:47;23.80;;;11.60;;
37297;SDS011;30517;51.932;4.278;2022-12-18T00:59:28;22.27;;;12.07;;
37297;SDS011;30517;51.932;4.278;2022-12-18T01:02:10;21.23;;;11.98;;
37297;SDS011;30517;51.932;4.278;2022-12-18T01:04:51;23.13;;;11.13;;
37297;SDS011;30517;51.932;4.278;2022-12-18T01:07:31;27.13;;;11.80;;
37297;SDS011;30517;51.932;4.278;2022-12-18T01:10:12;23.13;;;11.13;;
37297;SDS011;30517;51.932;4.278;2022-12-18T01:12:53;21.33;;;10.05;;
37297;SDS011;30517;51.932;4.278;2022-12-18T01:15:34;21.92;;;10.52;;
37297;SDS011;30517;51.932;4.278;2022-12-18T01:18:15;22.80;;;10.45;;
37297;SDS011;30517;51.932;4.278;2022-12-18T01:20:55;24.52;;;12.02;;
37297;SDS011;30517;51.932;4.278;2022-12-18T01:23:36;21.67;;;11.13;;
37297;SDS011;30517;51.932;4.278;2022-12-18T01:26:17;25.55;;;11.30;;
37297;SDS011;30517;51.932;4.278;2022-12-18T01:28:58;26.35;;;11.15;;
37297;SDS011;30517;51.932;4.278;2022-12-18T01:31:39;21.77;;;10.40;;
37297;SDS011;30517;51.932;4.278;2022-12-18T01:34:20;22.80;;;11.43;;
37297;SDS011;30517;51.932;4.278;2022-12-18T01:37:02;24.75;;;11.75;;
37297;SDS011;30517;51.932;4.278;2022-12-18T01:39:43;21.95;;;11.25;;
37297;SDS011;30517;51.932;4.278;2022-12-18T01:42:24;26.33;;;12.88;;
37297;SDS011;30517;51.932;4.278;2022-12-18T01:45:06;21.55;;;10.40;;
37297;SDS011;30517;51.932;4.278;2022-12-18T01:48:07;21.42;;;11.27;;
37297;SDS011;30517;51.932;4.278;2022-12-18T01:50:48;19.73;;;10.98;;
37297;SDS011;30517;51.932;4.278;2022-12-18T01:53:30;21.60;;;11.00;;
37297;SDS011;30517;51.932;4.278;2022-12-18T01:56:14;23.50;;;12.98;;
37297;SDS011;30517;51.932;4.278;2022-12-18T01:59:03;21.65;;;10.82;;
37297;SDS011;30517;51.932;4.278;2022-12-18T02:01:48;20.65;;;11.00;;
37297;SDS011;30517;51.932;4.278;2022-12-18T02:04:29;18.90;;;10.15;;
37297;SDS011;30517;51.932;4.278;2022-12-18T02:07:25;22.02;;;11.35;;
37297;SDS011;30517;51.932;4.278;2022-12-18T02:10:32;23.38;;;10.57;;
37297;SDS011;30517;51.932;4.278;2022-12-18T02:13:30;20.30;;;10.45;;
37297;SDS011;30517;51.932;4.278;2022-12-18T02:16:19;18.85;;;10.10;;
37297;SDS011;30517;51.932;4.278;2022-12-18T02:28:09;24.58;;;11.55;;
37297;SDS011;30517;51.932;4.278;2022-12-18T02:30:53;17.20;;;9.77;;
37297;SDS011;30517;51.932;4.278;2022-12-18T02:33:39;26.02;;;10.70;;
37297;SDS011;30517;51.932;4.278;2022-12-18T02:36:23;19.45;;;10.75;;
37297;SDS011;30517;51.932;4.278;2022-12-18T02:39:07;24.60;;;11.15;;
37297;SDS011;30517;51.932;4.278;2022-12-18T02:41:51;19.52;;;10.35;;
37297;SDS011;30517;51.932;4.278;2022-12-18T02:44:42;23.65;;;10.23;;
37297;SDS011;30517;51.932;4.278;2022-12-18T02:47:31;20.65;;;10.32;;
37297;SDS011;30517;51.932;4.278;2022-12-18T02:50:29;23.15;;;10.10;;
37297;SDS011;30517;51.932;4.278;2022-12-18T02:53:33;19.63;;;10.80;;
37297;SDS011;30517;51.932;4.278;2022-12-18T02:56:21;24.83;;;12.15;;
37297;SDS011;30517;51.932;4.278;2022-12-18T02:59:12;16.55;;;8.68;;
37297;SDS011;30517;51.932;4.278;2022-12-18T03:02:02;16.90;;;9.18;;
37297;SDS011;30517;51.932;4.278;2022-12-18T03:04:54;19.83;;;9.80;;
37297;SDS011;30517;51.932;4.278;2022-12-18T03:10:28;20.63;;;11.07;;
37297;SDS011;30517;51.932;4.278;2022-12-18T03:13:13;22.08;;;10.43;;
37297;SDS011;30517;51.932;4.278;2022-12-18T03:15:59;19.10;;;9.88;;
37297;SDS011;30517;51.932;4.278;2022-12-18T03:18:45;22.45;;;11.10;;
37297;SDS011;30517;51.932;4.278;2022-12-18T03:21:57;17.75;;;9.68;;
37297;SDS011;30517;51.932;4.278;2022-12-18T03:24:40;20.75;;;10.82;;
37297;SDS011;30517;51.932;4.278;2022-12-18T03:27:22;17.63;;;8.90;;
37297;SDS011;30517;51.932;4.278;2022-12-18T03:30:05;20.88;;;10.40;;
37297;SDS011;30517;51.932;4.278;2022-12-18T03:32:53;19.38;;;9.52;;
37297;SDS011;30517;51.932;4.278;2022-12-18T03:35:48;19.55;;;10.07;;
37297;SDS011;30517;51.932;4.278;2022-12-18T03:38:29;19.67;;;10.18;;
37297;SDS011;30517;51.932;4.278;2022-12-18T03:44:17;19.35;;;9.73;;
37297;SDS011;30517;51.932;4.278;2022-12-18T03:47:09;21.35;;;10.15;;
37297;SDS011;30517;51.932;4.278;2022-12-18T03:52:46;22.00;;;10.65;;
37297;SDS011;30517;51.932;4.278;2022-12-18T03:55:32;20.10;;;10.65;;
37297;SDS011;30517;51.932;4.278;2022-12-18T03:58:15;17.50;;;9.57;;
37297;SDS011;30517;51.932;4.278;2022-12-18T04:01:01;19.55;;;9.68;;
37297;SDS011;30517;51.932;4.278;2022-12-18T04:03:46;18.20;;;9.32;;
37297;SDS011;30517;51.932;4.278;2022-12-18T04:06:29;20.30;;;9.85;;
37297;SDS011;30517;51.932;4.278;2022-12-18T04:09:11;21.02;;;9.60;;
37297;SDS011;30517;51.932;4.278;2022-12-18T04:11:53;18.05;;;9.48;;
37297;SDS011;30517;51.932;4.278;2022-12-18T04:14:33;18.13;;;10.20;;
37297;SDS011;30517;51.932;4.278;2022-12-18T04:17:15;21.15;;;10.20;;
37297;SDS011;30517;51.932;4.278;2022-12-18T04:19:56;22.23;;;10.35;;
37297;SDS011;30517;51.932;4.278;2022-12-18T04:22:37;20.15;;;9.35;;
37297;SDS011;30517;51.932;4.278;2022-12-18T04:25:17;19.13;;;9.80;;
37297;SDS011;30517;51.932;4.278;2022-12-18T04:27:58;16.33;;;8.90;;
37297;SDS011;30517;51.932;4.278;2022-12-18T04:30:39;21.67;;;10.02;;
37297;SDS011;30517;51.932;4.278;2022-12-18T04:33:20;16.45;;;8.98;;
37297;SDS011;30517;51.932;4.278;2022-12-18T04:36:00;16.35;;;8.73;;
37297;SDS011;30517;51.932;4.278;2022-12-18T04:38:41;18.20;;;9.38;;
37297;SDS011;30517;51.932;4.278;2022-12-18T04:41:22;19.17;;;9.77;;
37297;SDS011;30517;51.932;4.278;2022-12-18T04:44:03;18.40;;;9.50;;
37297;SDS011;30517;51.932;4.278;2022-12-18T04:46:44;20.13;;;9.80;;
37297;SDS011;30517;51.932;4.278;2022-12-18T04:49:25;19.25;;;9.63;;
37297;SDS011;30517;51.932;4.278;2022-12-18T04:52:06;19.58;;;8.52;;
37297;SDS011;30517;51.932;4.278;2022-12-18T04:54:50;19.08;;;9.48;;
37297;SDS011;30517;51.932;4.278;2022-12-18T04:57:30;18.70;;;9.07;;
37297;SDS011;30517;51.932;4.278;2022-12-18T05:00:11;17.83;;;8.98;;
37297;SDS011;30517;51.932;4.278;2022-12-18T05:02:52;17.85;;;8.50;;
37297;SDS011;30517;51.932;4.278;2022-12-18T05:05:36;14.75;;;8.00;;
37297;SDS011;30517;51.932;4.278;2022-12-18T05:08:17;18.10;;;9.02;;
37297;SDS011;30517;51.932;4.278;2022-12-18T05:10:59;15.82;;;7.63;;
37297;SDS011;30517;51.932;4.278;2022-12-18T05:13:47;19.55;;;9.25;;
37297;SDS011;30517;51.932;4.278;2022-12-18T05:16:28;14.95;;;8.88;;
37297;SDS011;30517;51.932;4.278;2022-12-18T05:19:09;17.05;;;9.52;;
37297;SDS011;30517;51.932;4.278;2022-12-18T05:21:50;19.15;;;9.57;;
37297;SDS011;30517;51.932;4.278;2022-12-18T05:24:30;18.27;;;7.90;;
37297;SDS011;30517;51.932;4.278;2022-12-18T05:27:11;15.57;;;8.40;;
37297;SDS011;30517;51.932;4.278;2022-12-18T05:29:52;15.07;;;8.45;;
37297;SDS011;30517;51.932;4.278;2022-12-18T05:32:33;16.58;;;8.93;;
37297;SDS011;30517;51.932;4.278;2022-12-18T05:35:14;17.40;;;8.48;;
37297;SDS011;30517;51.932;4.278;2022-12-18T05:37:55;18.65;;;9.32;;
37297;SDS011;30517;51.932;4.278;2022-12-18T05:40:36;16.80;;;8.73;;
37297;SDS011;30517;51.932;4.278;2022-12-18T05:43:17;16.13;;;7.95;;
37297;SDS011;30517;51.932;4.278;2022-12-18T05:46:02;18.42;;;9.07;;
37297;SDS011;30517;51.932;4.278;2022-12-18T05:48:44;17.13;;;7.63;;
37297;SDS011;30517;51.932;4.278;2022-12-18T05:51:25;19.17;;;8.68;;
37297;SDS011;30517;51.932;4.278;2022-12-18T05:54:06;16.35;;;8.40;;
37297;SDS011;30517;51.932;4.278;2022-12-18T05:56:47;14.85;;;8.13;;
37297;SDS011;30517;51.932;4.278;2022-12-18T05:59:28;14.23;;;7.80;;
37297;SDS011;30517;51.932;4.278;2022-12-18T06:02:09;16.08;;;8.50;;
37297;SDS011;30517;51.932;4.278;2022-12-18T06:04:49;15.68;;;8.57;;
37297;SDS011;30517;51.932;4.278;2022-12-18T06:07:30;15.32;;;8.43;;
37297;SDS011;30517;51.932;4.278;2022-12-18T06:10:11;13.52;;;8.85;;
37297;SDS011;30517;51.932;4.278;2022-12-18T06:12:52;15.55;;;8.43;;
37297;SDS011;30517;51.932;4.278;2022-12-18T06:15:32;15.40;;;8.63;;
37297;SDS011;30517;51.932;4.278;2022-12-18T06:18:13;15.27;;;7.55;;
37297;SDS011;30517;51.932;4.278;2022-12-18T06:20:57;16.70;;;7.65;;
37297;SDS011;30517;51.932;4.278;2022-12-18T06:23:39;13.85;;;7.85;;
37297;SDS011;30517;51.932;4.278;2022-12-18T06:26:20;15.32;;;8.27;;
37297;SDS011;30517;51.932;4.278;2022-12-18T06:29:00;17.38;;;8.48;;
37297;SDS011;30517;51.932;4.278;2022-12-18T06:31:41;15.95;;;8.07;;
37297;SDS011;30517;51.932;4.278;2022-12-18T06:34:22;16.02;;;8.38;;
37297;SDS011;30517;51.932;4.278;2022-12-18T06:37:03;14.02;;;7.57;;
37297;SDS011;30517;51.932;4.278;2022-12-18T06:39:44;15.35;;;8.23;;
37297;SDS011;30517;51.932;4.278;2022-12-18T06:42:25;15.35;;;8.25;;
37297;SDS011;30517;51.932;4.278;2022-12-18T06:45:05;13.18;;;7.88;;
37297;SDS011;30517;51.932;4.278;2022-12-18T06:47:47;13.95;;;7.47;;
37297;SDS011;30517;51.932;4.278;2022-12-18T06:50:28;13.77;;;7.82;;
37297;SDS011;30517;51.932;4.278;2022-12-18T06:53:09;14.95;;;6.95;;
37297;SDS011;30517;51.932;4.278;2022-12-18T06:55:49;15.10;;;7.97;;
37297;SDS011;30517;51.932;4.278;2022-12-18T06:58:31;18.23;;;8.27;;
37297;SDS011;30517;51.932;4.278;2022-12-18T07:01:12;17.42;;;8.23;;
37297;SDS011;30517;51.932;4.278;2022-12-18T07:03:54;15.15;;;7.63;;
37297;SDS011;30517;51.932;4.278;2022-12-18T07:06:36;13.10;;;7.22;;
37297;SDS011;30517;51.932;4.278;2022-12-18T07:09:20;12.23;;;6.72;;
37297;SDS011;30517;51.932;4.278;2022-12-18T07:12:01;13.35;;;6.72;;
37297;SDS011;30517;51.932;4.278;2022-12-18T07:14:41;13.40;;;8.07;;
37297;SDS011;30517;51.932;4.278;2022-12-18T07:17:22;13.77;;;6.47;;
37297;SDS011;30517;51.932;4.278;2022-12-18T07:20:03;13.18;;;7.15;;
37297;SDS011;30517;51.932;4.278;2022-12-18T07:22:44;14.20;;;7.43;;
37297;SDS011;30517;51.932;4.278;2022-12-18T07:25:25;13.70;;;7.07;;
37297;SDS011;30517;51.932;4.278;2022-12-18T07:28:06;15.05;;;7.18;;
37297;SDS011;30517;51.932;4.278;2022-12-18T07:30:47;15.75;;;7.40;;
37297;SDS011;30517;51.932;4.278;2022-12-18T07:33:28;13.13;;;6.68;;
37297;SDS011;30517;51.932;4.278;2022-12-18T07:36:09;11.40;;;7.55;;
37297;SDS011;30517;51.932;4.278;2022-12-18T07:38:51;14.57;;;7.18;;
37297;SDS011;30517;51.932;4.278;2022-12-18T07:41:32;14.50;;;6.55;;
37297;SDS011;30517;51.932;4.278;2022-12-18T07:44:15;14.73;;;8.48;;
37297;SDS011;30517;51.932;4.278;2022-12-18T07:46:56;25.42;;;9.82;;
37297;SDS011;30517;51.932;4.278;2022-12-18T07:49:37;16.65;;;9.50;;
37297;SDS011;30517;51.932;4.278;2022-12-18T07:52:17;15.63;;;9.27;;
37297;SDS011;30517;51.932;4.278;2022-12-18T07:54:58;20.63;;;10.73;;
37297;SDS011;30517;51.932;4.278;2022-12-18T07:57:39;17.70;;;9.52;;
37297;SDS011;30517;51.932;4.278;2022-12-18T08:00:30;18.77;;;9.52;;
37297;SDS011;30517;51.932;4.278;2022-12-18T08:03:11;18.25;;;9.43;;
37297;SDS011;30517;51.932;4.278;2022-12-18T08:05:52;16.30;;;8.63;;
37297;SDS011;30517;51.932;4.278;2022-12-18T08:08:39;20.10;;;9.07;;
37297;SDS011;30517;51.932;4.278;2022-12-18T08:11:21;15.60;;;8.63;;
37297;SDS011;30517;51.932;4.278;2022-12-18T08:14:03;20.85;;;9.63;;
37297;SDS011;30517;51.932;4.278;2022-12-18T08:16:44;19.85;;;9.52;;
37297;SDS011;30517;51.932;4.278;2022-12-18T08:19:25;16.65;;;9.60;;
37297;SDS011;30517;51.932;4.278;2022-12-18T08:22:06;17.92;;;9.38;;
37297;SDS011;30517;51.932;4.278;2022-12-18T08:24:46;14.98;;;8.60;;
37297;SDS011;30517;51.932;4.278;2022-12-18T08:27:27;15.70;;;7.82;;
37297;SDS011;30517;51.932;4.278;2022-12-18T08:30:08;16.13;;;8.45;;
37297;SDS011;30517;51.932;4.278;2022-12-18T08:32:53;14.32;;;7.45;;
37297;SDS011;30517;51.932;4.278;2022-12-18T08:35:34;14.55;;;8.13;;
37297;SDS011;30517;51.932;4.278;2022-12-18T08:38:16;15.65;;;7.93;;
37297;SDS011;30517;51.932;4.278;2022-12-18T08:41:01;13.20;;;8.75;;
37297;SDS011;30517;51.932;4.278;2022-12-18T08:43:43;12.57;;;6.70;;
37297;SDS011;30517;51.932;4.278;2022-12-18T08:46:43;15.18;;;7.97;;
37297;SDS011;30517;51.932;4.278;2022-12-18T08:49:24;14.48;;;7.68;;
37297;SDS011;30517;51.932;4.278;2022-12-18T08:52:05;11.75;;;6.63;;
37297;SDS011;30517;51.932;4.278;2022-12-18T08:54:46;11.93;;;7.38;;
37297;SDS011;30517;51.932;4.278;2022-12-18T08:57:26;13.90;;;7.30;;
37297;SDS011;30517;51.932;4.278;2022-12-18T09:00:07;12.50;;;6.68;;
37297;SDS011;30517;51.932;4.278;2022-12-18T09:02:49;11.50;;;7.03;;
37297;SDS011;30517;51.932;4.278;2022-12-18T09:05:30;12.50;;;7.75;;
37297;SDS011;30517;51.932;4.278;2022-12-18T09:08:11;11.95;;;7.40;;
37297;SDS011;30517;51.932;4.278;2022-12-18T09:10:54;14.38;;;7.68;;
37297;SDS011;30517;51.932;4.278;2022-12-18T09:13:36;9.55;;;5.63;;
37297;SDS011;30517;51.932;4.278;2022-12-18T09:16:17;13.90;;;7.00;;
37297;SDS011;30517;51.932;4.278;2022-12-18T09:18:58;12.30;;;7.35;;
37297;SDS011;30517;51.932;4.278;2022-12-18T09:21:40;12.68;;;6.85;;
37297;SDS011;30517;51.932;4.278;2022-12-18T09:24:21;11.65;;;6.57;;
37297;SDS011;30517;51.932;4.278;2022-12-18T09:27:01;12.63;;;7.38;;
37297;SDS011;30517;51.932;4.278;2022-12-18T09:29:42;8.93;;;6.10;;
37297;SDS011;30517;51.932;4.278;2022-12-18T09:32:23;12.93;;;7.80;;
37297;SDS011;30517;51.932;4.278;2022-12-18T09:35:04;13.43;;;6.93;;
37297;SDS011;30517;51.932;4.278;2022-12-18T09:37:45;13.90;;;7.07;;
37297;SDS011;30517;51.932;4.278;2022-12-18T09:40:27;10.82;;;6.45;;
37297;SDS011;30517;51.932;4.278;2022-12-18T09:43:24;12.52;;;6.63;;
37297;SDS011;30517;51.932;4.278;2022-12-18T09:46:11;12.25;;;5.97;;
37297;SDS011;30517;51.932;4.278;2022-12-18T09:48:59;12.63;;;7.38;;
37297;SDS011;30517;51.932;4.278;2022-12-18T09:51:45;12.57;;;7.15;;
37297;SDS011;30517;51.932;4.278;2022-12-18T09:54:40;9.75;;;5.97;;
37297;SDS011;30517;51.932;4.278;2022-12-18T09:57:23;12.20;;;5.82;;
37297;SDS011;30517;51.932;4.278;2022-12-18T10:00:15;8.85;;;5.32;;
37297;SDS011;30517;51.932;4.278;2022-12-18T10:03:11;10.93;;;6.50;;
37297;SDS011;30517;51.932;4.278;2022-12-18T10:08:46;11.10;;;6.82;;
37297;SDS011;30517;51.932;4.278;2022-12-18T10:14:50;10.18;;;6.38;;
37297;SDS011;30517;51.932;4.278;2022-12-18T10:17:44;8.02;;;5.68;;
37297;SDS011;30517;51.932;4.278;2022-12-18T10:26:14;8.38;;;4.95;;
37297;SDS011;30517;51.932;4.278;2022-12-18T10:28:55;11.13;;;5.38;;
37297;SDS011;30517;51.932;4.278;2022-12-18T10:31:38;11.60;;;6.75;;
37297;SDS011;30517;51.932;4.278;2022-12-18T10:34:19;9.52;;;5.95;;
37297;SDS011;30517;51.932;4.278;2022-12-18T10:37:00;9.43;;;6.25;;
37297;SDS011;30517;51.932;4.278;2022-12-18T10:39:47;11.82;;;6.72;;
37297;SDS011;30517;51.932;4.278;2022-12-18T10:43:05;10.65;;;5.63;;
37297;SDS011;30517;51.932;4.278;2022-12-18T10:48:55;10.77;;;5.55;;
37297;SDS011;30517;51.932;4.278;2022-12-18T10:51:37;13.75;;;6.50;;
37297;SDS011;30517;51.932;4.278;2022-12-18T10:54:22;9.70;;;5.47;;
37297;SDS011;30517;51.932;4.278;2022-12-18T10:57:14;12.65;;;6.05;;
37297;SDS011;30517;51.932;4.278;2022-12-18T10:59:56;9.88;;;4.70;;
37297;SDS011;30517;51.932;4.278;2022-12-18T11:05:30;8.43;;;5.28;;
37297;SDS011;30517;51.932;4.278;2022-12-18T11:08:19;10.05;;;5.40;;
37297;SDS011;30517;51.932;4.278;2022-12-18T11:11:02;8.98;;;5.63;;
37297;SDS011;30517;51.932;4.278;2022-12-18T11:13:51;10.13;;;5.43;;
37297;SDS011;30517;51.932;4.278;2022-12-18T11:16:45;11.02;;;5.78;;
37297;SDS011;30517;51.932;4.278;2022-12-18T11:22:27;10.10;;;5.85;;
37297;SDS011;30517;51.932;4.278;2022-12-18T11:27:58;9.25;;;5.65;;
37297;SDS011;30517;51.932;4.278;2022-12-18T11:30:40;8.43;;;4.90;;
37297;SDS011;30517;51.932;4.278;2022-12-18T11:33:21;6.95;;;4.35;;
37297;SDS011;30517;51.932;4.278;2022-12-18T11:36:03;8.43;;;4.63;;
37297;SDS011;30517;51.932;4.278;2022-12-18T11:38:48;7.72;;;4.40;;
37297;SDS011;30517;51.932;4.278;2022-12-18T11:44:42;10.95;;;4.97;;
37297;SDS011;30517;51.932;4.278;2022-12-18T11:47:37;8.82;;;5.47;;
37297;SDS011;30517;51.932;4.278;2022-12-18T11:50:42;11.55;;;5.47;;
37297;SDS011;30517;51.932;4.278;2022-12-18T11:53:30;10.80;;;5.18;;
37297;SDS011;30517;51.932;4.278;2022-12-18T11:56:21;8.82;;;5.03;;
37297;SDS011;30517;51.932;4.278;2022-12-18T12:02:19;9.30;;;5.22;;
37297;SDS011;30517;51.932;4.278;2022-12-18T12:08:04;7.95;;;4.60;;
37297;SDS011;30517;51.932;4.278;2022-12-18T12:11:10;6.57;;;4.13;;
37297;SDS011;30517;51.932;4.278;2022-12-18T12:17:09;8.77;;;4.47;;
37297;SDS011;30517;51.932;4.278;2022-12-18T12:28:52;7.97;;;4.70;;
37297;SDS011;30517;51.932;4.278;2022-12-18T12:34:34;9.98;;;4.70;;
37297;SDS011;30517;51.932;4.278;2022-12-18T12:40:49;7.45;;;4.18;;
37297;SDS011;30517;51.932;4.278;2022-12-18T12:43:38;8.88;;;3.80;;
37297;SDS011;30517;51.932;4.278;2022-12-18T12:46:27;8.13;;;4.32;;
37297;SDS011;30517;51.932;4.278;2022-12-18T12:49:20;8.75;;;4.65;;
37297;SDS011;30517;51.932;4.278;2022-12-18T12:52:11;7.93;;;4.72;;
37297;SDS011;30517;51.932;4.278;2022-12-18T12:54:55;8.30;;;4.20;;
37297;SDS011;30517;51.932;4.278;2022-12-18T12:57:38;9.23;;;4.78;;
37297;SDS011;30517;51.932;4.278;2022-12-18T13:00:26;8.88;;;4.60;;
37297;SDS011;30517;51.932;4.278;2022-12-18T13:06:12;8.43;;;5.28;;
37297;SDS011;30517;51.932;4.278;2022-12-18T13:09:03;11.18;;;5.45;;
37297;SDS011;30517;51.932;4.278;2022-12-18T13:11:50;10.70;;;5.18;;
37297;SDS011;30517;51.932;4.278;2022-12-18T13:14:49;8.52;;;4.97;;
37297;SDS011;30517;51.932;4.278;2022-12-18T13:17:30;8.65;;;4.00;;
37297;SDS011;30517;51.932;4.278;2022-12-18T13:20:12;9.75;;;4.43;;
37297;SDS011;30517;51.932;4.278;2022-12-18T13:22:55;8.90;;;4.95;;
37297;SDS011;30517;51.932;4.278;2022-12-18T13:25:36;8.82;;;5.00;;
37297;SDS011;30517;51.932;4.278;2022-12-18T13:34:21;9.90;;;4.97;;
37297;SDS011;30517;51.932;4.278;2022-12-18T13:43:35;13.68;;;7.88;;
37297;SDS011;30517;51.932;4.278;2022-12-18T13:49:30;18.17;;;7.65;;
37297;SDS011;30517;51.932;4.278;2022-12-18T13:52:24;14.50;;;7.75;;
37297;SDS011;30517;51.932;4.278;2022-12-18T13:55:14;12.10;;;6.22;;
37297;SDS011;30517;51.932;4.278;2022-12-18T13:58:04;14.52;;;7.63;;
37297;SDS011;30517;51.932;4.278;2022-12-18T14:00:46;13.63;;;6.88;;
37297;SDS011;30517;51.932;4.278;2022-12-18T14:03:27;12.70;;;7.18;;
37297;SDS011;30517;51.932;4.278;2022-12-18T14:06:10;11.43;;;6.85;;
37297;SDS011;30517;51.932;4.278;2022-12-18T14:08:53;10.88;;;6.78;;
37297;SDS011;30517;51.932;4.278;2022-12-18T14:11:34;11.63;;;7.13;;
37297;SDS011;30517;51.932;4.278;2022-12-18T14:14:18;11.77;;;7.38;;
37297;SDS011;30517;51.932;4.278;2022-12-18T14:17:00;10.23;;;6.50;;
37297;SDS011;30517;51.932;4.278;2022-12-18T14:19:42;12.30;;;7.25;;
37297;SDS011;30517;51.932;4.278;2022-12-18T14:27:59;11.70;;;5.47;;
37297;SDS011;30517;51.932;4.278;2022-12-18T14:30:42;14.05;;;6.03;;
37297;SDS011;30517;51.932;4.278;2022-12-18T14:33:25;10.82;;;6.13;;
37297;SDS011;30517;51.932;4.278;2022-12-18T14:36:13;11.05;;;6.82;;
37297;SDS011;30517;51.932;4.278;2022-12-18T14:38:59;9.95;;;5.78;;
37297;SDS011;30517;51.932;4.278;2022-12-18T14:41:40;12.95;;;6.97;;
37297;SDS011;30517;51.932;4.278;2022-12-18T14:44:21;9.00;;;5.70;;
37297;SDS011;30517;51.932;4.278;2022-12-18T14:47:02;10.43;;;5.90;;
37297;SDS011;30517;51.932;4.278;2022-12-18T14:49:43;10.52;;;5.88;;
37297;SDS011;30517;51.932;4.278;2022-12-18T14:52:26;12.00;;;6.53;;
37297;SDS011;30517;51.932;4.278;2022-12-18T14:55:18;11.40;;;6.57;;
37297;SDS011;30517;51.932;4.278;2022-12-18T14:58:01;9.35;;;5.57;;
37297;SDS011;30517;51.932;4.278;2022-12-18T15:00:42;10.75;;;5.95;;
37297;SDS011;30517;51.932;4.278;2022-12-18T15:03:23;11.65;;;5.90;;
37297;SDS011;30517;51.932;4.278;2022-12-18T15:06:17;9.85;;;5.63;;
37297;SDS011;30517;51.932;4.278;2022-12-18T15:09:06;10.30;;;5.55;;
37297;SDS011;30517;51.932;4.278;2022-12-18T15:12:03;11.95;;;6.28;;
37297;SDS011;30517;51.932;4.278;2022-12-18T15:14:44;11.38;;;5.70;;
37297;SDS011;30517;51.932;4.278;2022-12-18T15:17:25;12.45;;;5.63;;
37297;SDS011;30517;51.932;4.278;2022-12-18T15:20:09;9.63;;;5.60;;
37297;SDS011;30517;51.932;4.278;2022-12-18T15:22:51;9.20;;;4.90;;
37297;SDS011;30517;51.932;4.278;2022-12-18T15:25:33;9.55;;;4.95;;
37297;SDS011;30517;51.932;4.278;2022-12-18T15:28:34;11.05;;;5.80;;
37297;SDS011;30517;51.932;4.278;2022-12-18T15:36:52;10.63;;;5.72;;
37297;SDS011;30517;51.932;4.278;2022-12-18T15:39:33;9.85;;;5.70;;
37297;SDS011;30517;51.932;4.278;2022-12-18T15:42:15;8.83;;;4.97;;
37297;SDS011;30517;51.932;4.278;2022-12-18T15:45:19;8.90;;;4.68;;
37297;SDS011;30517;51.932;4.278;2022-12-18T15:48:20;10.27;;;5.22;;
37297;SDS011;30517;51.932;4.278;2022-12-18T15:51:02;11.35;;;6.35;;
37297;SDS011;30517;51.932;4.278;2022-12-18T15:53:43;10.25;;;5.50;;
37297;SDS011;30517;51.932;4.278;2022-12-18T15:56:25;9.38;;;4.63;;
37297;SDS011;30517;51.932;4.278;2022-12-18T15:59:24;8.32;;;4.65;;
37297;SDS011;30517;51.932;4.278;2022-12-18T16:02:08;10.02;;;5.47;;
37297;SDS011;30517;51.932;4.278;2022-12-18T16:04:56;8.05;;;4.88;;
37297;SDS011;30517;51.932;4.278;2022-12-18T16:07:37;8.05;;;4.78;;
37297;SDS011;30517;51.932;4.278;2022-12-18T16:10:18;9.73;;;5.63;;
37297;SDS011;30517;51.932;4.278;2022-12-18T16:12:59;9.68;;;5.45;;
37297;SDS011;30517;51.932;4.278;2022-12-18T16:15:40;11.18;;;5.53;;
37297;SDS011;30517;51.932;4.278;2022-12-18T16:18:21;9.98;;;5.70;;
37297;SDS011;30517;51.932;4.278;2022-12-18T16:21:02;10.25;;;6.03;;
37297;SDS011;30517;51.932;4.278;2022-12-18T16:23:43;11.52;;;6.43;;
37297;SDS011;30517;51.932;4.278;2022-12-18T16:26:24;10.82;;;5.55;;
37297;SDS011;30517;51.932;4.278;2022-12-18T16:29:05;11.25;;;6.00;;
37297;SDS011;30517;51.932;4.278;2022-12-18T16:31:45;9.80;;;5.90;;
37297;SDS011;30517;51.932;4.278;2022-12-18T16:34:27;11.38;;;6.03;;
37297;SDS011;30517;51.932;4.278;2022-12-18T16:37:10;10.02;;;5.47;;
37297;SDS011;30517;51.932;4.278;2022-12-18T16:39:52;9.68;;;5.78;;
37297;SDS011;30517;51.932;4.278;2022-12-18T16:42:33;11.85;;;6.10;;
37297;SDS011;30517;51.932;4.278;2022-12-18T16:45:15;12.32;;;6.10;;
37297;SDS011;30517;51.932;4.278;2022-12-18T16:47:58;13.27;;;6.85;;
37297;SDS011;30517;51.932;4.278;2022-12-18T16:50:38;12.13;;;6.78;;
37297;SDS011;30517;51.932;4.278;2022-12-18T16:53:19;13.45;;;6.22;;
37297;SDS011;30517;51.932;4.278;2022-12-18T16:56:00;10.05;;;6.15;;
37297;SDS011;30517;51.932;4.278;2022-12-18T16:58:41;11.40;;;5.75;;
37297;SDS011;30517;51.932;4.278;2022-12-18T17:01:22;10.65;;;5.93;;
37297;SDS011;30517;51.932;4.278;2022-12-18T17:04:04;12.35;;;6.60;;
37297;SDS011;30517;51.932;4.278;2022-12-18T17:06:45;10.02;;;5.65;;
37297;SDS011;30517;51.932;4.278;2022-12-18T17:09:31;11.13;;;5.93;;
37297;SDS011;30517;51.932;4.278;2022-12-18T17:12:11;11.73;;;6.28;;
37297;SDS011;30517;51.932;4.278;2022-12-18T17:14:52;14.70;;;6.95;;
37297;SDS011;30517;51.932;4.278;2022-12-18T17:17:33;11.23;;;6.18;;
37297;SDS011;30517;51.932;4.278;2022-12-18T17:20:15;12.73;;;6.80;;
37297;SDS011;30517;51.932;4.278;2022-12-18T17:22:57;12.13;;;6.38;;
37297;SDS011;30517;51.932;4.278;2022-12-18T17:25:38;12.50;;;7.15;;
37297;SDS011;30517;51.932;4.278;2022-12-18T17:28:19;12.18;;;6.03;;
37297;SDS011;30517;51.932;4.278;2022-12-18T17:31:00;10.70;;;6.90;;
37297;SDS011;30517;51.932;4.278;2022-12-18T17:33:41;12.63;;;6.70;;
37297;SDS011;30517;51.932;4.278;2022-12-18T17:36:22;12.10;;;6.63;;
37297;SDS011;30517;51.932;4.278;2022-12-18T17:39:04;9.95;;;5.70;;
37297;SDS011;30517;51.932;4.278;2022-12-18T17:41:46;11.13;;;6.45;;
37297;SDS011;30517;51.932;4.278;2022-12-18T17:44:28;12.67;;;6.97;;
37297;SDS011;30517;51.932;4.278;2022-12-18T17:47:09;11.32;;;6.75;;
37297;SDS011;30517;51.932;4.278;2022-12-18T17:49:51;9.93;;;6.20;;